Time;durP1;ratioP1;P1;durP2;ratioP2;P2;SDS_P1;SDS_P2;PMS_P1;PMS_P2;Temp;Humidity;BMP_temperature;BMP_pressure;BME280_temperature;BME280_humidity;BME280_pressure;Samples;Min_cycle;Max_cycle;Signal;HPM_P1;HPM_P2
2021/12/26 07:11:08;;;;;;;28.10;19.35;;;;;;;;;;5123057;23;20139;-62
2021/12/26 07:13:34;;;;;;;29.05;19.20;;;;;;;;;;4896519;29;20033;-61
2021/12/26 07:16:00;;;;;;;30.40;19.52;;;;;;;;;;4896706;29;20039;-61
2021/12/26 07:18:26;;;;;;;27.50;18.80;;;;;;;;;;4896366;29;20032;-62
2021/12/26 07:20:53;;;;;;;32.15;19.98;;;;;;;;;;4894952;29;20044;-61
2021/12/26 07:23:19;;;;;;;31.35;19.75;;;;;;;;;;4880406;29;20048;-61
2021/12/26 07:25:45;;;;;;;36.08;21.48;;;;;;;;;;4896315;29;20039;-61
2021/12/26 07:28:11;;;;;;;31.30;21.33;;;;;;;;;;4896464;29;20032;-61
2021/12/26 07:30:37;;;;;;;33.83;22.33;;;;;;;;;;4896276;29;20032;-60
2021/12/26 07:33:03;;;;;;;33.25;22.70;;;;;;;;;;4896267;29;20024;-61
2021/12/26 07:35:29;;;;;;;33.42;21.35;;;;;;;;;;4896266;29;20021;-61
2021/12/26 07:37:55;;;;;;;33.80;20.08;;;;;;;;;;4896189;29;20635;-61
2021/12/26 07:40:22;;;;;;;40.20;23.73;;;;;;;;;;4896140;29;20123;-61
2021/12/26 07:42:48;;;;;;;41.72;27.83;;;;;;;;;;4879055;29;20107;-60
2021/12/26 07:45:14;;;;;;;34.63;23.20;;;;;;;;;;4896275;29;20028;-61
2021/12/26 07:47:40;;;;;;;40.53;25.27;;;;;;;;;;4896385;29;20120;-61
2021/12/26 07:50:07;;;;;;;38.00;24.23;;;;;;;;;;4895366;29;20036;-61
2021/12/26 07:52:37;;;;;;;41.17;25.98;;;;;;;;;;4895940;29;20036;-61
2021/12/26 07:55:04;;;;;;;31.23;19.58;;;;;;;;;;4896200;29;20024;-61
2021/12/26 07:57:31;;;;;;;22.27;14.00;;;;;;;;;;4896138;29;20033;-61
2021/12/26 07:59:57;;;;;;;27.35;15.40;;;;;;;;;;4896102;29;20441;-60
2021/12/26 08:02:23;;;;;;;20.88;14.63;;;;;;;;;;4895456;29;20937;-60
2021/12/26 08:04:49;;;;;;;22.27;15.60;;;;;;;;;;4896147;29;20048;-62
2021/12/26 08:07:15;;;;;;;24.40;16.27;;;;;;;;;;4895563;29;20091;-62
2021/12/26 08:09:41;;;;;;;21.23;16.33;;;;;;;;;;4895638;29;20057;-61
2021/12/26 08:12:08;;;;;;;20.73;15.00;;;;;;;;;;4895525;29;20096;-61
2021/12/26 08:14:34;;;;;;;21.27;14.93;;;;;;;;;;4895793;29;20477;-60
2021/12/26 08:17:01;;;;;;;21.80;15.57;;;;;;;;;;4895674;29;20072;-60
2021/12/26 08:19:27;;;;;;;22.08;16.45;;;;;;;;;;4895891;29;20123;-60
2021/12/26 08:21:54;;;;;;;20.73;15.55;;;;;;;;;;4895275;29;20133;-60
2021/12/26 08:24:22;;;;;;;20.33;15.73;;;;;;;;;;4895279;29;20497;-61
2021/12/26 08:26:51;;;;;;;18.48;13.95;;;;;;;;;;4895923;29;20024;-61
2021/12/26 08:29:17;;;;;;;18.35;13.50;;;;;;;;;;4895902;29;20522;-61
2021/12/26 08:31:44;;;;;;;20.00;14.02;;;;;;;;;;4895826;29;20037;-61
2021/12/26 08:34:10;;;;;;;17.48;13.13;;;;;;;;;;4899178;29;20024;-62
2021/12/26 08:36:36;;;;;;;20.58;15.05;;;;;;;;;;4899435;29;20031;-62
2021/12/26 08:39:03;;;;;;;20.70;15.60;;;;;;;;;;4898792;29;20116;-61
2021/12/26 08:41:29;;;;;;;25.45;17.35;;;;;;;;;;4899435;29;20465;-61
2021/12/26 08:43:55;;;;;;;21.40;16.50;;;;;;;;;;4899255;29;20699;-61
2021/12/26 08:46:22;;;;;;;25.92;18.10;;;;;;;;;;4898883;29;20111;-63
2021/12/26 08:48:48;;;;;;;23.52;17.13;;;;;;;;;;4898839;29;20029;-63
2021/12/26 08:51:14;;;;;;;17.80;13.20;;;;;;;;;;4898536;29;20115;-61
2021/12/26 08:53:41;;;;;;;19.95;14.25;;;;;;;;;;4898333;29;20504;-61
2021/12/26 08:56:07;;;;;;;25.83;17.30;;;;;;;;;;4898798;29;20028;-62
2021/12/26 08:58:33;;;;;;;21.85;14.32;;;;;;;;;;4899133;29;20108;-61
2021/12/26 09:00:59;;;;;;;24.63;17.85;;;;;;;;;;4898995;29;20051;-61
2021/12/26 09:03:25;;;;;;;20.70;15.50;;;;;;;;;;4898881;29;20025;-62
2021/12/26 09:05:51;;;;;;;24.33;17.40;;;;;;;;;;4898609;29;20481;-61
2021/12/26 09:08:17;;;;;;;23.75;18.92;;;;;;;;;;4898742;29;20076;-61
2021/12/26 09:10:44;;;;;;;18.65;13.88;;;;;;;;;;4898363;29;20404;-62
2021/12/26 09:13:10;;;;;;;20.10;14.70;;;;;;;;;;4898842;29;20031;-60
2021/12/26 09:15:37;;;;;;;22.63;15.93;;;;;;;;;;4898724;29;20079;-62
2021/12/26 09:18:03;;;;;;;21.90;17.38;;;;;;;;;;4898102;29;20028;-62
2021/12/26 09:20:30;;;;;;;25.83;19.30;;;;;;;;;;4898181;29;20088;-62
2021/12/26 09:22:56;;;;;;;18.17;13.50;;;;;;;;;;4898774;29;20052;-62
2021/12/26 09:25:22;;;;;;;15.98;12.70;;;;;;;;;;4898575;29;20064;-61
2021/12/26 09:27:48;;;;;;;18.70;14.60;;;;;;;;;;4898137;29;20032;-61
2021/12/26 09:30:14;;;;;;;18.90;13.57;;;;;;;;;;4898457;29;20044;-61
2021/12/26 09:32:41;;;;;;;19.13;13.35;;;;;;;;;;4898134;29;20112;-62
2021/12/26 09:35:07;;;;;;;20.58;14.82;;;;;;;;;;4895865;29;20037;-58
2021/12/26 09:37:33;;;;;;;20.17;14.85;;;;;;;;;;4888683;29;20036;-61
2021/12/26 09:39:59;;;;;;;21.70;14.68;;;;;;;;;;4879409;29;20052;-60
2021/12/26 09:42:26;;;;;;;22.05;15.18;;;;;;;;;;4879484;29;20244;-60
2021/12/26 09:44:52;;;;;;;24.10;17.23;;;;;;;;;;4879086;29;20073;-60
2021/12/26 09:47:18;;;;;;;23.83;15.00;;;;;;;;;;4879695;29;20025;-60
2021/12/26 09:49:47;;;;;;;19.35;14.05;;;;;;;;;;4879410;29;20036;-61
2021/12/26 09:52:13;;;;;;;21.55;14.98;;;;;;;;;;4879499;29;20036;-61
2021/12/26 09:54:39;;;;;;;23.20;14.55;;;;;;;;;;4879448;29;20033;-61
2021/12/26 09:57:05;;;;;;;27.65;17.35;;;;;;;;;;4879489;29;20375;-60
2021/12/26 09:59:31;;;;;;;21.30;15.85;;;;;;;;;;4879408;29;20033;-61
2021/12/26 10:02:00;;;;;;;20.13;15.55;;;;;;;;;;4877989;29;20044;-62
2021/12/26 10:04:31;;;;;;;15.52;11.27;;;;;;;;;;4877794;29;20033;-60
2021/12/26 10:06:58;;;;;;;16.02;11.15;;;;;;;;;;4877193;29;20032;-61
2021/12/26 10:09:25;;;;;;;18.35;12.38;;;;;;;;;;4874792;29;20405;-62
2021/12/26 10:11:52;;;;;;;14.30;11.07;;;;;;;;;;4876691;29;20037;-61
2021/12/26 10:14:20;;;;;;;16.17;12.45;;;;;;;;;;4875063;29;20029;-60
2021/12/26 10:16:47;;;;;;;17.55;13.25;;;;;;;;;;4877641;29;20220;-61
2021/12/26 10:19:16;;;;;;;20.40;14.65;;;;;;;;;;4877660;29;20025;-60
2021/12/26 10:21:42;;;;;;;22.00;16.20;;;;;;;;;;4877820;29;20041;-61
2021/12/26 10:24:13;;;;;;;24.98;16.83;;;;;;;;;;4877571;29;20021;-61
2021/12/26 10:27:05;;;;;;;28.25;19.30;;;;;;;;;;4875053;29;20036;-63
2021/12/26 10:29:33;;;;;;;28.10;19.45;;;;;;;;;;4873482;29;20043;-62
2021/12/26 10:32:05;;;;;;;27.42;18.60;;;;;;;;;;4874950;29;20048;-61
2021/12/26 10:34:33;;;;;;;28.77;17.83;;;;;;;;;;4877433;29;20051;-60
2021/12/26 10:37:00;;;;;;;28.63;19.00;;;;;;;;;;4875905;29;20029;-60
2021/12/26 10:39:28;;;;;;;36.08;21.48;;;;;;;;;;4877051;29;20044;-60
2021/12/26 10:41:57;;;;;;;28.92;18.75;;;;;;;;;;4878099;29;20485;-58
2021/12/26 10:44:31;;;;;;;30.15;20.05;;;;;;;;;;4877583;29;20052;-59
2021/12/26 10:46:59;;;;;;;34.83;21.00;;;;;;;;;;4877435;29;20050;-60
2021/12/26 10:49:30;;;;;;;45.08;24.55;;;;;;;;;;4877181;29;20032;-59
2021/12/26 10:51:56;;;;;;;41.20;25.77;;;;;;;;;;4877228;29;20073;-59
2021/12/26 10:54:25;;;;;;;37.72;25.10;;;;;;;;;;4876847;29;20040;-61
2021/12/26 10:57:02;;;;;;;41.42;26.25;;;;;;;;;;4877374;29;20027;-60
2021/12/26 10:59:28;;;;;;;31.30;17.67;;;;;;;;;;4875501;29;20132;-58
2021/12/26 11:01:56;;;;;;;25.65;16.80;;;;;;;;;;4877036;29;20370;-60
2021/12/26 11:04:22;;;;;;;29.38;18.67;;;;;;;;;;4876736;29;20025;-58
2021/12/26 11:07:03;;;;;;;36.00;22.63;;;;;;;;;;4876440;29;20033;-59
2021/12/26 11:09:29;;;;;;;30.75;19.20;;;;;;;;;;4874875;29;20397;-61
2021/12/26 11:12:13;;;;;;;34.58;21.20;;;;;;;;;;4876687;29;20021;-58
2021/12/26 11:14:59;;;;;;;39.47;23.88;;;;;;;;;;4876457;29;20433;-59
2021/12/26 11:17:33;;;;;;;49.25;30.20;;;;;;;;;;4875118;29;20021;-59
2021/12/26 11:19:59;;;;;;;49.90;32.05;;;;;;;;;;4876761;29;20039;-60
2021/12/26 11:22:25;;;;;;;48.50;33.10;;;;;;;;;;4876742;29;20123;-60
2021/12/26 11:24:53;;;;;;;50.58;31.55;;;;;;;;;;4876552;29;20561;-58
2021/12/26 11:27:20;;;;;;;49.60;30.42;;;;;;;;;;4876496;29;20033;-60
2021/12/26 11:29:48;;;;;;;39.35;24.88;;;;;;;;;;4876753;29;20076;-59
2021/12/26 11:32:15;;;;;;;39.42;25.23;;;;;;;;;;4876440;29;20029;-61
2021/12/26 11:34:42;;;;;;;38.75;24.40;;;;;;;;;;4876550;29;20025;-57
2021/12/26 11:37:08;;;;;;;33.63;21.00;;;;;;;;;;4876392;29;20033;-60
2021/12/26 11:39:37;;;;;;;34.38;20.60;;;;;;;;;;4876062;29;20033;-60
2021/12/26 11:42:07;;;;;;;39.83;21.50;;;;;;;;;;4874784;29;20045;-60
2021/12/26 11:44:45;;;;;;;36.30;20.33;;;;;;;;;;4876255;29;20041;-60
2021/12/26 11:47:21;;;;;;;34.63;22.52;;;;;;;;;;4874425;29;20021;-58
2021/12/26 11:49:54;;;;;;;46.38;25.20;;;;;;;;;;4874193;29;20052;-58
2021/12/26 11:52:20;;;;;;;45.00;25.02;;;;;;;;;;4876005;29;20029;-59
2021/12/26 11:54:52;;;;;;;67.88;37.78;;;;;;;;;;4876054;29;20017;-58
2021/12/26 11:57:21;;;;;;;75.25;42.00;;;;;;;;;;4876166;29;20029;-60
2021/12/26 12:00:06;;;;;;;58.67;23.40;;;;;;;;;;4873704;29;20482;-59
2021/12/26 12:02:45;;;;;;;49.70;27.63;;;;;;;;;;4875053;29;20037;-59
2021/12/26 12:05:11;;;;;;;49.78;25.60;;;;;;;;;;4876223;29;20112;-59
2021/12/26 12:07:44;;;;;;;57.97;29.08;;;;;;;;;;4881302;29;20092;-59
2021/12/26 12:10:29;;;;;;;46.50;25.42;;;;;;;;;;4879801;29;20049;-58
2021/12/26 12:12:55;;;;;;;50.97;28.75;;;;;;;;;;4878875;29;20096;-59
2021/12/26 12:15:40;;;;;;;49.42;26.58;;;;;;;;;;4883170;29;20381;-58
2021/12/26 12:18:11;;;;;;;48.60;24.90;;;;;;;;;;4883522;29;20064;-59
2021/12/26 12:20:37;;;;;;;58.33;26.23;;;;;;;;;;4882813;29;20076;-59
2021/12/26 12:23:07;;;;;;;51.90;23.40;;;;;;;;;;4890104;29;20085;-57
2021/12/26 12:25:39;;;;;;;55.05;24.55;;;;;;;;;;4887989;29;20035;-58
2021/12/26 12:28:14;;;;;;;59.58;25.67;;;;;;;;;;4881761;29;20043;-63
2021/12/26 12:30:42;;;;;;;49.20;25.98;;;;;;;;;;4886149;29;20157;-60
2021/12/26 12:33:13;;;;;;;42.65;23.40;;;;;;;;;;4883407;29;20798;-60
2021/12/26 12:35:49;;;;;;;55.95;26.45;;;;;;;;;;4885393;29;20169;-59
2021/12/26 12:38:22;;;;;;;68.03;27.80;;;;;;;;;;4882946;29;20029;-59
2021/12/26 12:40:48;;;;;;;57.83;27.45;;;;;;;;;;4884094;29;20142;-58
2021/12/26 12:43:18;;;;;;;68.43;34.30;;;;;;;;;;4871225;29;20092;-60
2021/12/26 12:45:54;;;;;;;120.65;33.50;;;;;;;;;;4890246;29;20079;-60
2021/12/26 12:48:20;;;;;;;71.05;34.13;;;;;;;;;;4885475;29;20161;-59
2021/12/26 12:50:47;;;;;;;94.10;45.75;;;;;;;;;;4873948;29;20040;-59
2021/12/26 12:53:31;;;;;;;67.90;34.30;;;;;;;;;;4882663;29;20035;-59
2021/12/26 12:55:57;;;;;;;95.38;37.47;;;;;;;;;;4882608;29;20032;-59
2021/12/26 12:58:36;;;;;;;64.45;31.77;;;;;;;;;;4882395;29;20037;-60
2021/12/26 13:01:03;;;;;;;60.47;28.90;;;;;;;;;;4891069;29;20044;-59
2021/12/26 13:03:31;;;;;;;59.42;29.27;;;;;;;;;;4884557;29;20021;-58
2021/12/26 13:06:05;;;;;;;65.00;29.05;;;;;;;;;;4882617;29;20715;-58
2021/12/26 13:08:33;;;;;;;70.82;31.48;;;;;;;;;;4883239;29;20524;-58
2021/12/26 13:11:01;;;;;;;67.10;33.17;;;;;;;;;;4892356;29;20056;-59
2021/12/26 13:13:27;;;;;;;81.30;42.50;;;;;;;;;;4882447;29;20025;-58
2021/12/26 13:16:06;;;;;;;74.60;34.33;;;;;;;;;;4882851;29;20040;-62
2021/12/26 13:18:33;;;;;;;87.13;40.25;;;;;;;;;;4880468;29;20124;-61
2021/12/26 13:21:06;;;;;;;89.15;38.13;;;;;;;;;;4879407;29;20025;-61
2021/12/26 13:23:34;;;;;;;72.63;33.45;;;;;;;;;;4879975;29;20028;-61
2021/12/26 13:26:04;;;;;;;71.78;33.80;;;;;;;;;;4879591;29;20025;-60
2021/12/26 13:28:30;;;;;;;70.32;31.17;;;;;;;;;;4879585;29;20035;-60
2021/12/26 13:30:59;;;;;;;60.45;28.50;;;;;;;;;;4879786;29;20067;-60
2021/12/26 13:33:25;;;;;;;57.35;27.15;;;;;;;;;;4879861;29;20060;-60
2021/12/26 13:35:51;;;;;;;59.15;26.75;;;;;;;;;;4879649;29;20032;-60
2021/12/26 13:38:18;;;;;;;50.70;24.35;;;;;;;;;;4879242;29;20108;-61
2021/12/26 13:40:46;;;;;;;66.47;27.00;;;;;;;;;;4886871;29;20045;-61
2021/12/26 13:43:12;;;;;;;60.00;26.83;;;;;;;;;;4887904;29;20512;-60
2021/12/26 13:45:41;;;;;;;60.92;25.27;;;;;;;;;;4879403;29;20068;-60
2021/12/26 13:48:08;;;;;;;80.47;31.58;;;;;;;;;;4889944;29;20032;-61
2021/12/26 13:50:34;;;;;;;67.00;30.13;;;;;;;;;;4879679;29;20025;-60
2021/12/26 13:53:03;;;;;;;123.78;40.65;;;;;;;;;;4879003;29;20477;-60
2021/12/26 13:55:31;;;;;;;74.65;33.30;;;;;;;;;;4879104;29;20021;-59
2021/12/26 13:57:59;;;;;;;108.28;43.45;;;;;;;;;;4879027;29;20033;-61
2021/12/26 14:00:27;;;;;;;91.72;38.17;;;;;;;;;;4879032;29;20104;-61
2021/12/26 14:02:53;;;;;;;67.47;32.10;;;;;;;;;;4879065;29;20044;-60
2021/12/26 14:05:21;;;;;;;75.47;35.17;;;;;;;;;;4881270;29;20031;-60
2021/12/26 14:07:58;;;;;;;91.75;40.60;;;;;;;;;;4887020;29;20033;-61
2021/12/26 14:10:26;;;;;;;98.53;42.42;;;;;;;;;;4878789;29;20049;-60
2021/12/26 14:12:54;;;;;;;99.85;45.15;;;;;;;;;;4878322;29;20481;-60
2021/12/26 14:15:33;;;;;;;93.10;44.72;;;;;;;;;;4878680;29;20072;-60
2021/12/26 14:18:04;;;;;;;88.70;43.45;;;;;;;;;;4878514;29;20037;-60
2021/12/26 14:20:42;;;;;;;114.30;42.15;;;;;;;;;;4878788;29;20489;-61
2021/12/26 14:23:40;;;;;;;103.55;38.00;;;;;;;;;;4878222;29;20041;-60
2021/12/26 14:26:12;;;;;;;74.53;36.55;;;;;;;;;;4877101;29;20045;-61
2021/12/26 14:28:43;;;;;;;84.40;37.30;;;;;;;;;;4878868;29;20033;-61
2021/12/26 14:31:09;;;;;;;80.10;36.30;;;;;;;;;;4878237;29;20029;-61
2021/12/26 14:33:46;;;;;;;102.57;34.33;;;;;;;;;;4878532;29;20044;-61
2021/12/26 14:36:13;;;;;;;90.75;40.40;;;;;;;;;;4885901;29;20103;-62
2021/12/26 14:38:39;;;;;;;87.07;37.20;;;;;;;;;;4876844;29;20045;-61
2021/12/26 14:41:06;;;;;;;111.60;36.80;;;;;;;;;;4877017;29;20116;-61
2021/12/26 14:43:33;;;;;;;73.82;34.42;;;;;;;;;;4877571;29;20491;-63
2021/12/26 14:46:05;;;;;;;81.55;28.50;;;;;;;;;;4877362;29;20033;-61
2021/12/26 14:48:34;;;;;;;67.97;28.40;;;;;;;;;;4877072;29;20017;-61
2021/12/26 14:51:11;;;;;;;59.63;27.13;;;;;;;;;;4877625;29;20049;-61
2021/12/26 14:53:37;;;;;;;59.35;27.90;;;;;;;;;;4877941;29;20064;-61
2021/12/26 14:56:05;;;;;;;58.53;27.73;;;;;;;;;;4878118;29;20036;-59
2021/12/26 14:58:39;;;;;;;58.60;32.53;;;;;;;;;;4877810;29;20021;-59
2021/12/26 15:01:05;;;;;;;59.97;28.75;;;;;;;;;;4878004;29;20049;-60
2021/12/26 15:03:34;;;;;;;53.97;25.02;;;;;;;;;;4878048;29;20572;-61
2021/12/26 15:06:10;;;;;;;51.38;24.85;;;;;;;;;;4878051;29;20040;-61
2021/12/26 15:08:37;;;;;;;37.20;19.63;;;;;;;;;;4877307;29;20240;-62
2021/12/26 15:11:03;;;;;;;38.58;20.55;;;;;;;;;;4877687;29;20037;-62
2021/12/26 15:13:35;;;;;;;38.80;20.80;;;;;;;;;;4877412;29;20120;-61
2021/12/26 15:16:01;;;;;;;40.38;20.83;;;;;;;;;;4877629;29;20025;-62
2021/12/26 15:18:29;;;;;;;51.22;23.27;;;;;;;;;;4877797;29;20033;-59
2021/12/26 15:20:56;;;;;;;41.78;21.85;;;;;;;;;;4877476;29;20077;-59
2021/12/26 15:23:24;;;;;;;43.80;22.98;;;;;;;;;;4877822;29;20055;-61
2021/12/26 15:26:01;;;;;;;46.70;25.73;;;;;;;;;;4877239;29;20036;-61
2021/12/26 15:28:29;;;;;;;41.47;20.75;;;;;;;;;;4876959;29;20033;-60
2021/12/26 15:31:00;;;;;;;40.10;20.30;;;;;;;;;;4877722;29;20051;-60
2021/12/26 15:33:35;;;;;;;40.65;19.85;;;;;;;;;;4876835;29;20125;-59
2021/12/26 15:36:02;;;;;;;38.08;19.92;;;;;;;;;;4877726;29;20089;-60
2021/12/26 15:38:28;;;;;;;39.88;19.25;;;;;;;;;;4877214;29;20029;-60
2021/12/26 15:40:54;;;;;;;36.58;19.00;;;;;;;;;;4876947;29;20041;-61
2021/12/26 15:43:20;;;;;;;43.10;24.08;;;;;;;;;;4877199;29;20037;-62
2021/12/26 15:45:46;;;;;;;48.08;24.67;;;;;;;;;;4877639;29;20037;-62
2021/12/26 15:48:12;;;;;;;49.35;26.42;;;;;;;;;;4877386;29;20156;-61
2021/12/26 15:50:38;;;;;;;72.47;34.85;;;;;;;;;;4877564;29;20409;-61
2021/12/26 15:53:05;;;;;;;55.35;27.10;;;;;;;;;;4877170;29;20499;-61
2021/12/26 15:55:31;;;;;;;44.72;24.20;;;;;;;;;;4877300;29;20032;-61
2021/12/26 15:57:59;;;;;;;58.83;29.52;;;;;;;;;;4877121;29;20489;-61
2021/12/26 16:00:25;;;;;;;54.90;27.95;;;;;;;;;;4877299;29;20040;-60
2021/12/26 16:02:52;;;;;;;87.72;41.80;;;;;;;;;;4877101;29;20076;-60
2021/12/26 16:05:18;;;;;;;54.35;26.85;;;;;;;;;;4877306;29;20033;-60
2021/12/26 16:07:44;;;;;;;54.30;26.48;;;;;;;;;;4876672;29;20401;-61
2021/12/26 16:10:10;;;;;;;82.57;37.33;;;;;;;;;;4876577;29;20084;-61
2021/12/26 16:12:36;;;;;;;91.70;42.78;;;;;;;;;;4876920;29;20040;-61
2021/12/26 16:15:03;;;;;;;58.03;29.40;;;;;;;;;;4876926;29;20036;-61
2021/12/26 16:17:29;;;;;;;56.20;29.70;;;;;;;;;;4877070;29;20025;-61
2021/12/26 16:19:56;;;;;;;43.85;21.23;;;;;;;;;;4876709;29;20100;-60
2021/12/26 16:22:22;;;;;;;39.63;20.30;;;;;;;;;;4877032;29;20124;-62
2021/12/26 16:24:49;;;;;;;42.22;21.85;;;;;;;;;;4877072;29;20057;-61
2021/12/26 16:27:15;;;;;;;43.65;23.10;;;;;;;;;;4876586;29;20056;-61
2021/12/26 16:29:42;;;;;;;46.80;24.17;;;;;;;;;;4876949;29;20017;-61
2021/12/26 16:32:09;;;;;;;36.55;20.08;;;;;;;;;;4876857;29;20089;-61
2021/12/26 16:34:36;;;;;;;102.72;52.80;;;;;;;;;;4876994;29;20108;-61
2021/12/26 16:37:03;;;;;;;44.10;22.48;;;;;;;;;;4876833;29;20484;-61
2021/12/26 16:39:29;;;;;;;39.92;21.27;;;;;;;;;;4876185;29;20468;-61
2021/12/26 16:41:55;;;;;;;35.70;18.70;;;;;;;;;;4876898;29;20045;-61
2021/12/26 16:44:21;;;;;;;35.13;19.25;;;;;;;;;;4876901;29;20029;-61
2021/12/26 16:46:47;;;;;;;31.13;15.85;;;;;;;;;;4876914;29;20052;-61
2021/12/26 16:49:14;;;;;;;33.60;17.92;;;;;;;;;;4880209;29;20056;-61
2021/12/26 16:51:40;;;;;;;32.28;18.50;;;;;;;;;;4894880;29;20031;-61
2021/12/26 16:54:06;;;;;;;30.58;16.70;;;;;;;;;;4897474;29;20033;-60
2021/12/26 16:56:32;;;;;;;30.92;16.90;;;;;;;;;;4898980;29;20405;-60
2021/12/26 16:58:58;;;;;;;30.92;18.08;;;;;;;;;;4899044;29;20033;-62
2021/12/26 17:01:24;;;;;;;33.65;18.65;;;;;;;;;;4898530;29;20051;-62
2021/12/26 17:03:51;;;;;;;26.38;15.60;;;;;;;;;;4898968;29;20116;-62
2021/12/26 17:06:18;;;;;;;26.38;15.18;;;;;;;;;;4898833;29;20061;-60
2021/12/26 17:08:45;;;;;;;27.83;14.35;;;;;;;;;;4898367;29;20131;-59
2021/12/26 17:11:14;;;;;;;33.30;15.90;;;;;;;;;;4898384;29;20048;-60
2021/12/26 17:13:40;;;;;;;27.13;14.90;;;;;;;;;;4898185;29;20111;-59
2021/12/26 17:16:06;;;;;;;30.15;15.57;;;;;;;;;;4898543;29;20084;-63
2021/12/26 17:18:32;;;;;;;40.42;19.30;;;;;;;;;;4898567;29;20031;-62
2021/12/26 17:20:58;;;;;;;26.25;14.68;;;;;;;;;;4898492;29;20060;-60
2021/12/26 17:23:24;;;;;;;33.50;17.58;;;;;;;;;;4897701;29;20040;-61
2021/12/26 17:25:50;;;;;;;25.98;15.45;;;;;;;;;;4898604;29;20057;-59
2021/12/26 17:28:17;;;;;;;26.98;14.85;;;;;;;;;;4879705;29;20516;-61
2021/12/26 17:30:43;;;;;;;27.40;15.93;;;;;;;;;;4879638;29;20040;-61
2021/12/26 17:33:09;;;;;;;31.90;15.52;;;;;;;;;;4879276;29;20029;-60
2021/12/26 17:35:37;;;;;;;21.85;12.77;;;;;;;;;;4879531;29;20419;-62
2021/12/26 17:38:04;;;;;;;24.50;13.73;;;;;;;;;;4879610;29;20062;-62
2021/12/26 17:40:30;;;;;;;24.27;13.80;;;;;;;;;;4879206;29;20041;-62
2021/12/26 17:42:57;;;;;;;26.48;13.80;;;;;;;;;;4879408;29;20033;-63
2021/12/26 17:45:23;;;;;;;28.55;14.93;;;;;;;;;;4879518;29;20507;-62
2021/12/26 17:47:49;;;;;;;20.25;10.65;;;;;;;;;;4879150;29;20029;-63
2021/12/26 17:50:15;;;;;;;12.60;7.15;;;;;;;;;;4879478;29;20104;-64
2021/12/26 17:52:42;;;;;;;18.95;9.82;;;;;;;;;;4879351;29;20390;-63
2021/12/26 17:55:09;;;;;;;11.77;6.45;;;;;;;;;;4879220;29;20025;-63
2021/12/26 17:57:35;;;;;;;12.52;7.30;;;;;;;;;;4879112;29;20363;-61
2021/12/26 18:00:04;;;;;;;13.80;7.28;;;;;;;;;;4879571;29;20044;-61
2021/12/26 18:02:30;;;;;;;13.27;6.72;;;;;;;;;;4879591;29;20497;-66
2021/12/26 18:04:56;;;;;;;13.52;7.78;;;;;;;;;;4878910;29;20060;-61
2021/12/26 18:07:22;;;;;;;10.98;6.63;;;;;;;;;;4879315;29;20045;-61
2021/12/26 18:09:48;;;;;;;13.55;6.78;;;;;;;;;;4878364;29;20044;-62
2021/12/26 18:12:14;;;;;;;27.58;12.05;;;;;;;;;;4879080;29;20082;-63
2021/12/26 18:14:40;;;;;;;10.98;7.40;;;;;;;;;;4878949;29;20033;-63
2021/12/26 18:17:06;;;;;;;19.17;10.20;;;;;;;;;;4879100;29;20037;-63
2021/12/26 18:19:32;;;;;;;23.25;12.13;;;;;;;;;;4879136;29;20029;-62
2021/12/26 18:21:58;;;;;;;23.52;13.45;;;;;;;;;;4878522;29;20096;-63
2021/12/26 18:24:24;;;;;;;43.80;19.58;;;;;;;;;;4878748;29;20059;-62
2021/12/26 18:26:51;;;;;;;32.53;18.15;;;;;;;;;;4878817;29;20029;-62
2021/12/26 18:29:17;;;;;;;51.95;24.30;;;;;;;;;;4876909;29;20025;-62
2021/12/26 18:31:43;;;;;;;32.30;18.33;;;;;;;;;;4877315;29;20041;-62
2021/12/26 18:34:09;;;;;;;31.27;19.52;;;;;;;;;;4876046;29;20108;-63
2021/12/26 18:36:35;;;;;;;39.92;21.58;;;;;;;;;;4877655;29;20100;-62
2021/12/26 18:39:02;;;;;;;26.52;15.25;;;;;;;;;;4877263;29;20021;-63
2021/12/26 18:41:28;;;;;;;26.95;15.30;;;;;;;;;;4878144;29;20148;-60
2021/12/26 18:43:54;;;;;;;57.03;31.02;;;;;;;;;;4878861;29;20169;-64
2021/12/26 18:46:25;;;;;;;22.67;13.80;;;;;;;;;;4878523;29;20052;-63
2021/12/26 18:48:51;;;;;;;30.27;16.95;;;;;;;;;;4878306;29;20029;-64
2021/12/26 18:51:21;;;;;;;29.40;17.40;;;;;;;;;;4891387;29;20037;-62
2021/12/26 18:53:47;;;;;;;24.10;13.95;;;;;;;;;;4897044;29;20025;-64
2021/12/26 18:56:13;;;;;;;21.70;13.73;;;;;;;;;;4896773;29;20041;-63
2021/12/26 18:58:40;;;;;;;20.98;13.13;;;;;;;;;;4896782;29;20365;-63
2021/12/26 19:01:06;;;;;;;22.13;13.60;;;;;;;;;;4897603;29;20040;-62
2021/12/26 19:03:33;;;;;;;18.63;11.40;;;;;;;;;;4897091;29;20077;-61
2021/12/26 19:05:59;;;;;;;16.23;10.35;;;;;;;;;;4896697;29;20039;-65
2021/12/26 19:08:25;;;;;;;17.25;10.63;;;;;;;;;;4896430;29;20107;-63
2021/12/26 19:10:52;;;;;;;17.33;11.00;;;;;;;;;;4896615;29;20080;-61
2021/12/26 19:13:22;;;;;;;18.90;11.65;;;;;;;;;;4896459;29;20485;-62
2021/12/26 19:15:49;;;;;;;21.25;12.45;;;;;;;;;;4896228;29;20033;-65
2021/12/26 19:18:16;;;;;;;23.05;14.35;;;;;;;;;;4896357;29;20024;-64
2021/12/26 19:20:42;;;;;;;24.23;14.30;;;;;;;;;;4896587;29;20033;-61
2021/12/26 19:23:08;;;;;;;24.85;15.02;;;;;;;;;;4896482;29;20412;-61
2021/12/26 19:25:34;;;;;;;23.70;13.35;;;;;;;;;;4896722;29;20459;-64
2021/12/26 19:28:01;;;;;;;23.00;14.50;;;;;;;;;;4896546;29;20036;-62
2021/12/26 19:30:27;;;;;;;24.17;13.43;;;;;;;;;;4896623;29;20468;-63
2021/12/26 19:32:55;;;;;;;18.05;11.77;;;;;;;;;;4896528;29;20081;-62
2021/12/26 19:35:22;;;;;;;19.23;12.07;;;;;;;;;;4896589;29;20033;-66
2021/12/26 19:37:48;;;;;;;16.02;10.45;;;;;;;;;;4896285;29;20029;-63
2021/12/26 19:40:15;;;;;;;19.20;12.57;;;;;;;;;;4895974;29;20393;-63
2021/12/26 19:42:45;;;;;;;25.92;16.05;;;;;;;;;;4896222;29;20051;-63
2021/12/26 19:45:12;;;;;;;23.25;14.95;;;;;;;;;;4896246;29;20084;-62
2021/12/26 19:47:38;;;;;;;19.98;13.95;;;;;;;;;;4896232;29;20080;-63
2021/12/26 19:50:05;;;;;;;18.85;12.32;;;;;;;;;;4896372;29;20384;-64
2021/12/26 19:52:31;;;;;;;18.88;12.73;;;;;;;;;;4896198;29;20029;-62
2021/12/26 19:54:57;;;;;;;19.77;13.35;;;;;;;;;;4896151;29;20153;-61
2021/12/26 19:57:24;;;;;;;22.42;14.40;;;;;;;;;;4896196;29;20025;-63
2021/12/26 19:59:50;;;;;;;28.50;16.23;;;;;;;;;;4896108;29;20051;-63
2021/12/26 20:02:16;;;;;;;18.00;12.45;;;;;;;;;;4895968;29;20048;-65
2021/12/26 20:04:42;;;;;;;17.52;11.25;;;;;;;;;;4895934;29;20036;-63
2021/12/26 20:07:08;;;;;;;17.80;11.85;;;;;;;;;;4895793;29;20029;-63
2021/12/26 20:09:34;;;;;;;25.23;15.07;;;;;;;;;;4895112;29;20039;-63
2021/12/26 20:12:00;;;;;;;12.27;8.95;;;;;;;;;;4895532;29;20044;-62
2021/12/26 20:14:27;;;;;;;27.95;15.55;;;;;;;;;;4895685;29;20076;-63
2021/12/26 20:16:55;;;;;;;11.77;7.97;;;;;;;;;;4895664;29;20038;-65
2021/12/26 20:19:21;;;;;;;37.95;19.70;;;;;;;;;;4895696;29;20031;-62
2021/12/26 20:21:50;;;;;;;17.13;10.68;;;;;;;;;;4895821;29;20060;-61
2021/12/26 20:24:17;;;;;;;11.73;8.20;;;;;;;;;;4895654;29;20528;-63
2021/12/26 20:26:44;;;;;;;11.10;7.45;;;;;;;;;;4895577;29;20493;-64
2021/12/26 20:29:10;;;;;;;14.05;9.35;;;;;;;;;;4898499;29;20507;-64
2021/12/26 20:31:36;;;;;;;21.33;14.43;;;;;;;;;;4899573;29;20509;-64
2021/12/26 20:34:02;;;;;;;17.63;11.25;;;;;;;;;;4899227;29;20544;-64
2021/12/26 20:36:29;;;;;;;41.25;19.73;;;;;;;;;;4899767;29;20485;-64
2021/12/26 20:38:55;;;;;;;60.10;26.10;;;;;;;;;;4899382;29;20028;-63
2021/12/26 20:41:22;;;;;;;41.38;22.67;;;;;;;;;;4899546;29;20640;-66
2021/12/26 20:43:48;;;;;;;51.92;27.13;;;;;;;;;;4899646;29;20036;-63
2021/12/26 20:46:15;;;;;;;57.72;32.25;;;;;;;;;;4899500;29;20107;-65
2021/12/26 20:48:42;;;;;;;36.50;21.77;;;;;;;;;;4899085;29;20031;-64
2021/12/26 20:51:09;;;;;;;22.52;14.93;;;;;;;;;;4899512;29;20058;-64
2021/12/26 20:53:36;;;;;;;30.80;19.08;;;;;;;;;;4899325;29;20731;-65
2021/12/26 20:56:02;;;;;;;34.30;19.35;;;;;;;;;;4899534;29;20033;-67
2021/12/26 20:58:28;;;;;;;46.55;26.35;;;;;;;;;;4899216;29;20032;-66
2021/12/26 21:00:55;;;;;;;28.02;17.42;;;;;;;;;;4899107;29;20441;-65
2021/12/26 21:03:21;;;;;;;25.05;16.08;;;;;;;;;;4899369;29;20068;-64
2021/12/26 21:05:47;;;;;;;26.23;16.95;;;;;;;;;;4899133;29;20037;-69
2021/12/26 21:08:13;;;;;;;32.20;20.52;;;;;;;;;;4899030;29;20025;-66
2021/12/26 21:10:40;;;;;;;28.80;17.98;;;;;;;;;;4898641;29;20049;-62
2021/12/26 21:13:06;;;;;;;21.63;13.50;;;;;;;;;;4899143;29;20522;-64
2021/12/26 21:15:32;;;;;;;21.42;13.82;;;;;;;;;;4898829;29;20033;-60
2021/12/26 21:17:59;;;;;;;21.85;13.63;;;;;;;;;;4896437;29;20029;-58
2021/12/26 21:20:25;;;;;;;22.60;13.90;;;;;;;;;;4883646;29;20057;-61
2021/12/26 21:22:51;;;;;;;23.50;14.32;;;;;;;;;;4880269;29;20092;-62
2021/12/26 21:25:18;;;;;;;32.33;19.08;;;;;;;;;;4880329;29;20112;-58
2021/12/26 21:27:44;;;;;;;23.55;14.93;;;;;;;;;;4880674;29;20033;-62
2021/12/26 21:30:11;;;;;;;17.83;11.50;;;;;;;;;;4881008;29;20061;-59